sensor_id;sensor_type;location;lat;lon;timestamp;P1;durP1;ratioP1;P2;durP2;ratioP2
76617;SDS011;65509;42.816;74.648;2023-06-14T00:00:43;27.05;;;6.10;;
76617;SDS011;65509;42.816;74.648;2023-06-14T00:03:09;27.27;;;6.68;;
76617;SDS011;65509;42.816;74.648;2023-06-14T00:05:37;21.63;;;6.20;;
76617;SDS011;65509;42.816;74.648;2023-06-14T00:08:08;30.42;;;6.70;;
76617;SDS011;65509;42.816;74.648;2023-06-14T00:10:34;23.20;;;6.72;;
76617;SDS011;65509;42.816;74.648;2023-06-14T00:13:03;26.17;;;6.82;;
76617;SDS011;65509;42.816;74.648;2023-06-14T00:15:30;23.10;;;6.75;;
76617;SDS011;65509;42.816;74.648;2023-06-14T00:17:56;24.60;;;6.38;;
76617;SDS011;65509;42.816;74.648;2023-06-14T00:20:21;24.10;;;5.70;;
76617;SDS011;65509;42.816;74.648;2023-06-14T00:22:47;27.55;;;5.95;;
76617;SDS011;65509;42.816;74.648;2023-06-14T00:25:13;31.95;;;7.03;;
76617;SDS011;65509;42.816;74.648;2023-06-14T00:27:38;29.38;;;6.82;;
76617;SDS011;65509;42.816;74.648;2023-06-14T00:30:04;41.13;;;7.35;;
76617;SDS011;65509;42.816;74.648;2023-06-14T00:32:29;41.88;;;7.57;;
76617;SDS011;65509;42.816;74.648;2023-06-14T00:34:55;32.22;;;7.45;;
76617;SDS011;65509;42.816;74.648;2023-06-14T00:37:20;27.38;;;6.55;;
76617;SDS011;65509;42.816;74.648;2023-06-14T00:39:46;21.83;;;5.57;;
76617;SDS011;65509;42.816;74.648;2023-06-14T00:42:22;36.63;;;7.30;;
76617;SDS011;65509;42.816;74.648;2023-06-14T00:44:48;24.88;;;6.55;;
76617;SDS011;65509;42.816;74.648;2023-06-14T00:47:13;39.83;;;7.63;;
76617;SDS011;65509;42.816;74.648;2023-06-14T00:49:40;25.38;;;6.38;;
76617;SDS011;65509;42.816;74.648;2023-06-14T00:52:06;29.35;;;6.85;;
76617;SDS011;65509;42.816;74.648;2023-06-14T00:54:32;24.73;;;7.03;;
76617;SDS011;65509;42.816;74.648;2023-06-14T00:56:57;20.63;;;5.78;;
76617;SDS011;65509;42.816;74.648;2023-06-14T00:59:23;33.40;;;7.13;;
76617;SDS011;65509;42.816;74.648;2023-06-14T01:01:48;28.60;;;6.13;;
76617;SDS011;65509;42.816;74.648;2023-06-14T01:04:14;29.83;;;7.20;;
76617;SDS011;65509;42.816;74.648;2023-06-14T01:14:32;30.15;;;6.60;;
76617;SDS011;65509;42.816;74.648;2023-06-14T01:17:02;21.35;;;6.55;;
76617;SDS011;65509;42.816;74.648;2023-06-14T01:19:27;20.00;;;6.22;;
76617;SDS011;65509;42.816;74.648;2023-06-14T01:21:53;32.00;;;7.60;;
76617;SDS011;65509;42.816;74.648;2023-06-14T01:24:20;41.70;;;8.98;;
76617;SDS011;65509;42.816;74.648;2023-06-14T01:26:52;29.08;;;8.30;;
76617;SDS011;65509;42.816;74.648;2023-06-14T01:29:21;49.55;;;9.15;;
76617;SDS011;65509;42.816;74.648;2023-06-14T01:31:47;31.35;;;8.65;;
76617;SDS011;65509;42.816;74.648;2023-06-14T01:34:13;31.58;;;8.00;;
76617;SDS011;65509;42.816;74.648;2023-06-14T01:36:39;19.92;;;6.88;;
76617;SDS011;65509;42.816;74.648;2023-06-14T01:39:05;28.45;;;7.50;;
76617;SDS011;65509;42.816;74.648;2023-06-14T01:41:31;43.92;;;9.10;;
76617;SDS011;65509;42.816;74.648;2023-06-14T01:43:58;49.03;;;10.30;;
76617;SDS011;65509;42.816;74.648;2023-06-14T01:46:24;26.27;;;8.13;;
76617;SDS011;65509;42.816;74.648;2023-06-14T01:48:50;25.85;;;7.35;;
76617;SDS011;65509;42.816;74.648;2023-06-14T01:51:15;39.47;;;8.73;;
76617;SDS011;65509;42.816;74.648;2023-06-14T01:53:41;27.38;;;7.80;;
76617;SDS011;65509;42.816;74.648;2023-06-14T01:56:06;33.58;;;8.27;;
76617;SDS011;65509;42.816;74.648;2023-06-14T01:58:32;38.80;;;8.93;;
76617;SDS011;65509;42.816;74.648;2023-06-14T02:00:58;42.03;;;9.18;;
76617;SDS011;65509;42.816;74.648;2023-06-14T02:03:25;30.08;;;8.85;;
76617;SDS011;65509;42.816;74.648;2023-06-14T02:05:51;48.67;;;9.85;;
76617;SDS011;65509;42.816;74.648;2023-06-14T02:08:17;47.97;;;9.57;;
76617;SDS011;65509;42.816;74.648;2023-06-14T02:10:42;50.60;;;11.50;;
76617;SDS011;65509;42.816;74.648;2023-06-14T02:13:07;53.05;;;10.90;;
76617;SDS011;65509;42.816;74.648;2023-06-14T02:15:33;50.03;;;10.25;;
76617;SDS011;65509;42.816;74.648;2023-06-14T02:18:02;32.92;;;9.57;;
76617;SDS011;65509;42.816;74.648;2023-06-14T02:20:28;46.42;;;10.55;;
76617;SDS011;65509;42.816;74.648;2023-06-14T02:22:54;30.73;;;8.75;;
76617;SDS011;65509;42.816;74.648;2023-06-14T02:25:19;44.40;;;9.75;;
76617;SDS011;65509;42.816;74.648;2023-06-14T02:27:45;36.83;;;9.75;;
76617;SDS011;65509;42.816;74.648;2023-06-14T02:30:11;41.80;;;10.23;;
76617;SDS011;65509;42.816;74.648;2023-06-14T02:32:37;39.40;;;10.20;;
76617;SDS011;65509;42.816;74.648;2023-06-14T02:35:03;25.35;;;9.13;;
76617;SDS011;65509;42.816;74.648;2023-06-14T02:37:29;38.60;;;10.25;;
76617;SDS011;65509;42.816;74.648;2023-06-14T02:39:55;47.20;;;11.20;;
76617;SDS011;65509;42.816;74.648;2023-06-14T02:42:21;49.15;;;10.77;;
76617;SDS011;65509;42.816;74.648;2023-06-14T02:44:46;37.80;;;10.70;;
76617;SDS011;65509;42.816;74.648;2023-06-14T02:47:16;45.72;;;12.20;;
76617;SDS011;65509;42.816;74.648;2023-06-14T02:49:42;47.08;;;12.35;;
76617;SDS011;65509;42.816;74.648;2023-06-14T02:52:07;37.92;;;11.10;;
76617;SDS011;65509;42.816;74.648;2023-06-14T02:54:34;50.67;;;11.32;;
76617;SDS011;65509;42.816;74.648;2023-06-14T02:56:59;41.05;;;12.43;;
76617;SDS011;65509;42.816;74.648;2023-06-14T02:59:25;44.38;;;11.25;;
76617;SDS011;65509;42.816;74.648;2023-06-14T03:01:51;41.50;;;11.40;;
76617;SDS011;65509;42.816;74.648;2023-06-14T03:04:17;44.45;;;11.10;;
76617;SDS011;65509;42.816;74.648;2023-06-14T03:06:42;48.45;;;10.60;;
76617;SDS011;65509;42.816;74.648;2023-06-14T03:09:09;37.42;;;10.45;;
76617;SDS011;65509;42.816;74.648;2023-06-14T03:11:35;61.00;;;12.10;;
76617;SDS011;65509;42.816;74.648;2023-06-14T03:14:01;35.55;;;10.35;;
76617;SDS011;65509;42.816;74.648;2023-06-14T03:16:28;42.22;;;10.80;;
76617;SDS011;65509;42.816;74.648;2023-06-14T03:18:55;33.10;;;9.75;;
76617;SDS011;65509;42.816;74.648;2023-06-14T03:21:20;54.55;;;12.32;;
76617;SDS011;65509;42.816;74.648;2023-06-14T03:23:47;42.17;;;10.55;;
76617;SDS011;65509;42.816;74.648;2023-06-14T03:26:13;45.03;;;10.85;;
76617;SDS011;65509;42.816;74.648;2023-06-14T03:28:46;41.38;;;11.70;;
76617;SDS011;65509;42.816;74.648;2023-06-14T03:31:12;51.72;;;12.25;;
76617;SDS011;65509;42.816;74.648;2023-06-14T03:33:38;35.80;;;10.57;;
76617;SDS011;65509;42.816;74.648;2023-06-14T03:36:03;42.10;;;11.02;;
76617;SDS011;65509;42.816;74.648;2023-06-14T03:38:30;37.33;;;11.60;;
76617;SDS011;65509;42.816;74.648;2023-06-14T03:40:55;36.95;;;11.32;;
76617;SDS011;65509;42.816;74.648;2023-06-14T03:43:21;40.13;;;11.20;;
76617;SDS011;65509;42.816;74.648;2023-06-14T03:45:46;48.20;;;11.68;;
76617;SDS011;65509;42.816;74.648;2023-06-14T03:48:12;43.53;;;12.00;;
76617;SDS011;65509;42.816;74.648;2023-06-14T03:50:37;38.75;;;10.00;;
76617;SDS011;65509;42.816;74.648;2023-06-14T03:53:07;48.25;;;11.23;;
76617;SDS011;65509;42.816;74.648;2023-06-14T03:55:33;50.47;;;11.32;;
76617;SDS011;65509;42.816;74.648;2023-06-14T03:57:58;35.90;;;10.77;;
76617;SDS011;65509;42.816;74.648;2023-06-14T04:00:24;49.80;;;12.55;;
76617;SDS011;65509;42.816;74.648;2023-06-14T04:02:50;41.38;;;11.60;;
76617;SDS011;65509;42.816;74.648;2023-06-14T04:05:15;38.15;;;11.77;;
76617;SDS011;65509;42.816;74.648;2023-06-14T04:07:45;34.70;;;11.30;;
76617;SDS011;65509;42.816;74.648;2023-06-14T04:10:11;38.47;;;10.20;;
76617;SDS011;65509;42.816;74.648;2023-06-14T04:12:37;33.97;;;10.18;;
76617;SDS011;65509;42.816;74.648;2023-06-14T04:15:02;44.55;;;12.02;;
76617;SDS011;65509;42.816;74.648;2023-06-14T04:17:28;40.90;;;11.07;;
76617;SDS011;65509;42.816;74.648;2023-06-14T04:19:54;29.25;;;10.13;;
76617;SDS011;65509;42.816;74.648;2023-06-14T04:22:20;45.45;;;12.68;;
76617;SDS011;65509;42.816;74.648;2023-06-14T04:24:45;43.17;;;13.15;;
76617;SDS011;65509;42.816;74.648;2023-06-14T04:27:11;38.90;;;11.43;;
76617;SDS011;65509;42.816;74.648;2023-06-14T04:29:36;52.22;;;12.73;;
76617;SDS011;65509;42.816;74.648;2023-06-14T04:32:02;46.53;;;15.23;;
76617;SDS011;65509;42.816;74.648;2023-06-14T04:34:28;56.20;;;15.15;;
76617;SDS011;65509;42.816;74.648;2023-06-14T04:36:57;61.60;;;13.85;;
76617;SDS011;65509;42.816;74.648;2023-06-14T04:39:24;47.60;;;13.05;;
76617;SDS011;65509;42.816;74.648;2023-06-14T04:41:50;45.80;;;10.93;;
76617;SDS011;65509;42.816;74.648;2023-06-14T04:44:22;47.92;;;10.80;;
76617;SDS011;65509;42.816;74.648;2023-06-14T04:46:49;46.47;;;10.93;;
76617;SDS011;65509;42.816;74.648;2023-06-14T04:49:15;43.30;;;10.95;;
76617;SDS011;65509;42.816;74.648;2023-06-14T04:51:44;57.63;;;12.93;;
76617;SDS011;65509;42.816;74.648;2023-06-14T04:54:15;33.45;;;10.82;;
76617;SDS011;65509;42.816;74.648;2023-06-14T04:56:43;63.33;;;12.93;;
76617;SDS011;65509;42.816;74.648;2023-06-14T04:59:10;47.88;;;11.63;;
76617;SDS011;65509;42.816;74.648;2023-06-14T05:01:40;45.35;;;11.95;;
76617;SDS011;65509;42.816;74.648;2023-06-14T05:04:08;52.13;;;12.60;;
76617;SDS011;65509;42.816;74.648;2023-06-14T05:06:37;47.15;;;11.95;;
76617;SDS011;65509;42.816;74.648;2023-06-14T05:09:03;50.90;;;11.10;;
76617;SDS011;65509;42.816;74.648;2023-06-14T05:11:29;49.22;;;10.93;;
76617;SDS011;65509;42.816;74.648;2023-06-14T05:13:54;31.98;;;8.60;;
76617;SDS011;65509;42.816;74.648;2023-06-14T05:16:19;38.20;;;9.35;;
76617;SDS011;65509;42.816;74.648;2023-06-14T05:18:48;36.38;;;10.50;;
76617;SDS011;65509;42.816;74.648;2023-06-14T05:21:14;33.42;;;9.68;;
76617;SDS011;65509;42.816;74.648;2023-06-14T05:23:44;33.40;;;9.27;;
76617;SDS011;65509;42.816;74.648;2023-06-14T05:26:12;29.42;;;9.18;;
76617;SDS011;65509;42.816;74.648;2023-06-14T05:28:37;34.45;;;8.60;;
76617;SDS011;65509;42.816;74.648;2023-06-14T05:31:03;37.47;;;8.90;;
76617;SDS011;65509;42.816;74.648;2023-06-14T05:33:28;37.92;;;9.23;;
76617;SDS011;65509;42.816;74.648;2023-06-14T05:35:54;37.83;;;9.40;;
76617;SDS011;65509;42.816;74.648;2023-06-14T05:38:20;42.35;;;10.13;;
76617;SDS011;65509;42.816;74.648;2023-06-14T05:40:45;38.50;;;9.50;;
76617;SDS011;65509;42.816;74.648;2023-06-14T05:43:11;43.65;;;9.50;;
76617;SDS011;65509;42.816;74.648;2023-06-14T05:45:36;42.22;;;10.02;;
76617;SDS011;65509;42.816;74.648;2023-06-14T05:48:02;47.25;;;10.35;;
76617;SDS011;65509;42.816;74.648;2023-06-14T05:50:28;52.67;;;11.55;;
76617;SDS011;65509;42.816;74.648;2023-06-14T05:52:53;48.30;;;10.23;;
76617;SDS011;65509;42.816;74.648;2023-06-14T05:55:19;41.88;;;9.65;;
76617;SDS011;65509;42.816;74.648;2023-06-14T05:57:47;39.33;;;8.82;;
76617;SDS011;65509;42.816;74.648;2023-06-14T06:00:16;34.28;;;8.85;;
76617;SDS011;65509;42.816;74.648;2023-06-14T06:02:44;39.38;;;9.15;;
76617;SDS011;65509;42.816;74.648;2023-06-14T06:05:11;36.30;;;9.52;;
76617;SDS011;65509;42.816;74.648;2023-06-14T06:07:37;39.22;;;9.50;;
76617;SDS011;65509;42.816;74.648;2023-06-14T06:10:03;50.35;;;9.82;;
76617;SDS011;65509;42.816;74.648;2023-06-14T06:12:28;42.58;;;9.45;;
76617;SDS011;65509;42.816;74.648;2023-06-14T06:14:54;40.22;;;9.18;;
76617;SDS011;65509;42.816;74.648;2023-06-14T06:17:20;40.47;;;9.55;;
76617;SDS011;65509;42.816;74.648;2023-06-14T06:19:45;33.15;;;8.80;;
76617;SDS011;65509;42.816;74.648;2023-06-14T06:22:11;38.60;;;8.85;;
76617;SDS011;65509;42.816;74.648;2023-06-14T06:24:36;41.35;;;8.90;;
76617;SDS011;65509;42.816;74.648;2023-06-14T06:27:04;41.75;;;8.77;;
76617;SDS011;65509;42.816;74.648;2023-06-14T06:29:30;42.40;;;7.95;;
76617;SDS011;65509;42.816;74.648;2023-06-14T06:31:55;42.83;;;9.02;;
76617;SDS011;65509;42.816;74.648;2023-06-14T06:34:21;38.63;;;7.78;;
76617;SDS011;65509;42.816;74.648;2023-06-14T06:36:47;45.47;;;8.63;;
76617;SDS011;65509;42.816;74.648;2023-06-14T06:39:12;37.80;;;8.10;;
76617;SDS011;65509;42.816;74.648;2023-06-14T06:41:39;46.17;;;9.40;;
76617;SDS011;65509;42.816;74.648;2023-06-14T06:44:05;40.45;;;8.10;;
76617;SDS011;65509;42.816;74.648;2023-06-14T06:46:34;37.25;;;8.32;;
76617;SDS011;65509;42.816;74.648;2023-06-14T06:49:00;43.20;;;8.65;;
76617;SDS011;65509;42.816;74.648;2023-06-14T06:51:25;39.03;;;8.35;;
76617;SDS011;65509;42.816;74.648;2023-06-14T06:53:54;42.92;;;8.43;;
76617;SDS011;65509;42.816;74.648;2023-06-14T06:56:20;39.05;;;8.07;;
76617;SDS011;65509;42.816;74.648;2023-06-14T06:58:51;39.08;;;9.77;;
76617;SDS011;65509;42.816;74.648;2023-06-14T07:01:17;42.10;;;7.90;;
76617;SDS011;65509;42.816;74.648;2023-06-14T07:03:43;40.15;;;7.50;;
76617;SDS011;65509;42.816;74.648;2023-06-14T07:06:09;27.48;;;7.13;;
76617;SDS011;65509;42.816;74.648;2023-06-14T07:08:35;36.10;;;6.80;;
76617;SDS011;65509;42.816;74.648;2023-06-14T07:11:01;31.35;;;6.85;;
76617;SDS011;65509;42.816;74.648;2023-06-14T07:13:27;40.35;;;7.78;;
76617;SDS011;65509;42.816;74.648;2023-06-14T07:15:58;35.05;;;7.28;;
76617;SDS011;65509;42.816;74.648;2023-06-14T07:18:23;38.65;;;7.43;;
76617;SDS011;65509;42.816;74.648;2023-06-14T07:20:49;27.38;;;6.50;;
76617;SDS011;65509;42.816;74.648;2023-06-14T07:23:15;37.63;;;6.95;;
76617;SDS011;65509;42.816;74.648;2023-06-14T07:25:40;40.83;;;6.97;;
76617;SDS011;65509;42.816;74.648;2023-06-14T07:28:09;43.72;;;7.65;;
76617;SDS011;65509;42.816;74.648;2023-06-14T07:30:35;51.38;;;8.27;;
76617;SDS011;65509;42.816;74.648;2023-06-14T07:33:00;48.67;;;7.97;;
76617;SDS011;65509;42.816;74.648;2023-06-14T07:35:28;53.83;;;7.93;;
76617;SDS011;65509;42.816;74.648;2023-06-14T07:37:53;38.85;;;7.75;;
76617;SDS011;65509;42.816;74.648;2023-06-14T07:40:22;46.45;;;9.00;;
76617;SDS011;65509;42.816;74.648;2023-06-14T07:42:47;39.13;;;6.88;;
76617;SDS011;65509;42.816;74.648;2023-06-14T07:45:18;34.85;;;6.88;;
76617;SDS011;65509;42.816;74.648;2023-06-14T07:47:43;32.42;;;6.55;;
76617;SDS011;65509;42.816;74.648;2023-06-14T07:50:10;45.72;;;8.45;;
76617;SDS011;65509;42.816;74.648;2023-06-14T07:52:38;44.72;;;9.65;;
76617;SDS011;65509;42.816;74.648;2023-06-14T07:55:04;41.60;;;9.05;;
76617;SDS011;65509;42.816;74.648;2023-06-14T07:57:29;57.40;;;8.52;;
76617;SDS011;65509;42.816;74.648;2023-06-14T07:59:56;37.08;;;7.88;;
76617;SDS011;65509;42.816;74.648;2023-06-14T08:02:23;45.45;;;8.63;;
76617;SDS011;65509;42.816;74.648;2023-06-14T08:04:49;43.75;;;8.57;;
76617;SDS011;65509;42.816;74.648;2023-06-14T08:07:14;49.58;;;8.82;;
76617;SDS011;65509;42.816;74.648;2023-06-14T08:09:40;48.03;;;7.68;;
76617;SDS011;65509;42.816;74.648;2023-06-14T08:12:06;43.92;;;7.53;;
76617;SDS011;65509;42.816;74.648;2023-06-14T08:14:38;44.38;;;7.93;;
76617;SDS011;65509;42.816;74.648;2023-06-14T08:17:06;38.83;;;7.10;;
76617;SDS011;65509;42.816;74.648;2023-06-14T08:19:35;48.10;;;7.35;;
76617;SDS011;65509;42.816;74.648;2023-06-14T08:22:00;25.50;;;5.88;;
76617;SDS011;65509;42.816;74.648;2023-06-14T08:24:29;42.47;;;7.32;;
76617;SDS011;65509;42.816;74.648;2023-06-14T08:26:54;40.90;;;8.02;;
76617;SDS011;65509;42.816;74.648;2023-06-14T08:29:21;44.67;;;8.13;;
76617;SDS011;65509;42.816;74.648;2023-06-14T08:31:50;30.85;;;7.03;;
76617;SDS011;65509;42.816;74.648;2023-06-14T08:34:17;58.15;;;8.35;;
76617;SDS011;65509;42.816;74.648;2023-06-14T08:36:42;45.80;;;8.85;;
76617;SDS011;65509;42.816;74.648;2023-06-14T08:39:08;49.47;;;8.25;;
76617;SDS011;65509;42.816;74.648;2023-06-14T08:41:34;48.13;;;8.30;;
76617;SDS011;65509;42.816;74.648;2023-06-14T08:44:00;51.10;;;8.40;;
76617;SDS011;65509;42.816;74.648;2023-06-14T08:46:26;40.78;;;7.97;;
76617;SDS011;65509;42.816;74.648;2023-06-14T08:48:53;49.33;;;8.68;;
76617;SDS011;65509;42.816;74.648;2023-06-14T08:51:22;45.03;;;8.60;;
76617;SDS011;65509;42.816;74.648;2023-06-14T08:53:52;41.13;;;8.70;;
76617;SDS011;65509;42.816;74.648;2023-06-14T08:56:17;44.30;;;10.80;;
76617;SDS011;65509;42.816;74.648;2023-06-14T08:58:43;50.30;;;14.88;;
76617;SDS011;65509;42.816;74.648;2023-06-14T09:01:10;37.15;;;8.05;;
76617;SDS011;65509;42.816;74.648;2023-06-14T09:03:40;62.63;;;10.82;;
76617;SDS011;65509;42.816;74.648;2023-06-14T09:06:06;32.05;;;7.85;;
76617;SDS011;65509;42.816;74.648;2023-06-14T09:08:34;47.63;;;8.48;;
76617;SDS011;65509;42.816;74.648;2023-06-14T09:11:01;37.30;;;7.85;;
76617;SDS011;65509;42.816;74.648;2023-06-14T09:13:26;27.63;;;7.28;;
76617;SDS011;65509;42.816;74.648;2023-06-14T09:16:01;30.63;;;6.40;;
76617;SDS011;65509;42.816;74.648;2023-06-14T09:18:45;41.03;;;8.95;;
76617;SDS011;65509;42.816;74.648;2023-06-14T09:21:13;48.22;;;8.90;;
76617;SDS011;65509;42.816;74.648;2023-06-14T09:23:39;36.15;;;7.63;;
76617;SDS011;65509;42.816;74.648;2023-06-14T09:26:14;37.45;;;8.25;;
76617;SDS011;65509;42.816;74.648;2023-06-14T09:31:08;43.13;;;8.88;;
76617;SDS011;65509;42.816;74.648;2023-06-14T09:33:35;43.35;;;8.02;;
76617;SDS011;65509;42.816;74.648;2023-06-14T09:36:00;47.53;;;8.13;;
76617;SDS011;65509;42.816;74.648;2023-06-14T09:38:26;36.85;;;6.75;;
76617;SDS011;65509;42.816;74.648;2023-06-14T09:40:51;39.20;;;6.88;;
76617;SDS011;65509;42.816;74.648;2023-06-14T09:43:17;36.33;;;7.30;;
76617;SDS011;65509;42.816;74.648;2023-06-14T09:45:43;38.10;;;7.15;;
76617;SDS011;65509;42.816;74.648;2023-06-14T09:48:11;26.77;;;6.10;;
76617;SDS011;65509;42.816;74.648;2023-06-14T09:50:37;39.67;;;7.18;;
76617;SDS011;65509;42.816;74.648;2023-06-14T09:53:03;44.90;;;9.60;;
76617;SDS011;65509;42.816;74.648;2023-06-14T09:55:30;46.03;;;11.10;;
76617;SDS011;65509;42.816;74.648;2023-06-14T09:57:57;56.67;;;9.10;;
76617;SDS011;65509;42.816;74.648;2023-06-14T10:00:24;38.42;;;6.20;;
76617;SDS011;65509;42.816;74.648;2023-06-14T10:02:53;34.40;;;6.07;;
76617;SDS011;65509;42.816;74.648;2023-06-14T10:05:19;34.03;;;6.38;;
76617;SDS011;65509;42.816;74.648;2023-06-14T10:07:52;47.90;;;7.60;;
76617;SDS011;65509;42.816;74.648;2023-06-14T10:10:18;38.20;;;6.70;;
76617;SDS011;65509;42.816;74.648;2023-06-14T10:12:44;51.92;;;8.57;;
76617;SDS011;65509;42.816;74.648;2023-06-14T10:15:10;41.45;;;7.93;;
76617;SDS011;65509;42.816;74.648;2023-06-14T10:17:43;53.83;;;8.80;;
76617;SDS011;65509;42.816;74.648;2023-06-14T10:22:45;42.20;;;6.72;;
76617;SDS011;65509;42.816;74.648;2023-06-14T10:25:13;38.75;;;7.55;;
76617;SDS011;65509;42.816;74.648;2023-06-14T10:27:45;36.35;;;7.07;;
76617;SDS011;65509;42.816;74.648;2023-06-14T10:30:24;44.35;;;7.47;;
76617;SDS011;65509;42.816;74.648;2023-06-14T10:33:03;51.55;;;9.13;;
76617;SDS011;65509;42.816;74.648;2023-06-14T10:35:29;43.15;;;7.88;;
76617;SDS011;65509;42.816;74.648;2023-06-14T10:37:55;43.40;;;7.68;;
76617;SDS011;65509;42.816;74.648;2023-06-14T10:40:30;44.33;;;7.00;;
76617;SDS011;65509;42.816;74.648;2023-06-14T10:42:55;35.40;;;7.10;;
76617;SDS011;65509;42.816;74.648;2023-06-14T10:45:21;38.97;;;7.53;;
76617;SDS011;65509;42.816;74.648;2023-06-14T10:47:47;43.83;;;7.85;;
76617;SDS011;65509;42.816;74.648;2023-06-14T10:50:14;45.80;;;9.00;;
76617;SDS011;65509;42.816;74.648;2023-06-14T10:52:42;52.40;;;8.73;;
76617;SDS011;65509;42.816;74.648;2023-06-14T10:55:13;22.55;;;5.40;;
76617;SDS011;65509;42.816;74.648;2023-06-14T10:57:51;43.08;;;7.07;;
76617;SDS011;65509;42.816;74.648;2023-06-14T11:00:20;31.92;;;7.57;;
76617;SDS011;65509;42.816;74.648;2023-06-14T11:05:28;40.42;;;8.45;;
76617;SDS011;65509;42.816;74.648;2023-06-14T11:07:58;57.33;;;10.27;;
76617;SDS011;65509;42.816;74.648;2023-06-14T11:12:55;35.75;;;6.47;;
76617;SDS011;65509;42.816;74.648;2023-06-14T11:15:27;44.30;;;9.57;;
76617;SDS011;65509;42.816;74.648;2023-06-14T11:17:53;47.55;;;16.13;;
76617;SDS011;65509;42.816;74.648;2023-06-14T11:20:19;42.72;;;10.43;;
76617;SDS011;65509;42.816;74.648;2023-06-14T11:22:44;47.22;;;9.02;;
76617;SDS011;65509;42.816;74.648;2023-06-14T11:25:11;36.22;;;7.47;;
76617;SDS011;65509;42.816;74.648;2023-06-14T11:27:42;54.92;;;12.38;;
76617;SDS011;65509;42.816;74.648;2023-06-14T11:30:12;46.92;;;11.80;;
76617;SDS011;65509;42.816;74.648;2023-06-14T11:32:38;50.75;;;11.05;;
76617;SDS011;65509;42.816;74.648;2023-06-14T11:35:04;36.15;;;6.78;;
76617;SDS011;65509;42.816;74.648;2023-06-14T11:37:30;40.03;;;9.05;;
76617;SDS011;65509;42.816;74.648;2023-06-14T11:39:59;51.85;;;9.35;;
76617;SDS011;65509;42.816;74.648;2023-06-14T11:42:28;42.63;;;8.95;;
76617;SDS011;65509;42.816;74.648;2023-06-14T11:44:54;51.72;;;8.52;;
76617;SDS011;65509;42.816;74.648;2023-06-14T11:47:23;43.08;;;9.18;;
76617;SDS011;65509;42.816;74.648;2023-06-14T11:49:48;67.70;;;11.70;;
76617;SDS011;65509;42.816;74.648;2023-06-14T11:52:14;54.30;;;12.95;;
76617;SDS011;65509;42.816;74.648;2023-06-14T11:54:39;49.15;;;14.50;;
76617;SDS011;65509;42.816;74.648;2023-06-14T11:57:08;41.95;;;8.07;;
76617;SDS011;65509;42.816;74.648;2023-06-14T11:59:39;40.00;;;9.82;;
76617;SDS011;65509;42.816;74.648;2023-06-14T12:02:05;38.17;;;8.90;;
76617;SDS011;65509;42.816;74.648;2023-06-14T12:04:34;36.67;;;8.82;;
76617;SDS011;65509;42.816;74.648;2023-06-14T12:07:12;46.70;;;11.65;;
76617;SDS011;65509;42.816;74.648;2023-06-14T12:09:39;48.00;;;9.30;;
76617;SDS011;65509;42.816;74.648;2023-06-14T12:12:05;42.72;;;7.53;;
76617;SDS011;65509;42.816;74.648;2023-06-14T12:14:30;31.10;;;8.15;;
76617;SDS011;65509;42.816;74.648;2023-06-14T12:17:05;63.72;;;15.88;;
76617;SDS011;65509;42.816;74.648;2023-06-14T12:19:31;38.60;;;9.70;;
76617;SDS011;65509;42.816;74.648;2023-06-14T12:21:58;36.58;;;9.68;;
76617;SDS011;65509;42.816;74.648;2023-06-14T12:24:27;49.08;;;9.55;;
76617;SDS011;65509;42.816;74.648;2023-06-14T12:26:52;43.05;;;7.93;;
76617;SDS011;65509;42.816;74.648;2023-06-14T12:29:19;47.35;;;8.30;;
76617;SDS011;65509;42.816;74.648;2023-06-14T12:31:45;47.63;;;10.10;;
76617;SDS011;65509;42.816;74.648;2023-06-14T12:34:10;44.40;;;13.52;;
76617;SDS011;65509;42.816;74.648;2023-06-14T12:36:36;39.10;;;8.65;;
76617;SDS011;65509;42.816;74.648;2023-06-14T12:39:07;40.38;;;9.68;;
76617;SDS011;65509;42.816;74.648;2023-06-14T12:41:33;45.33;;;9.25;;
76617;SDS011;65509;42.816;74.648;2023-06-14T12:44:01;41.75;;;8.18;;
76617;SDS011;65509;42.816;74.648;2023-06-14T12:46:30;41.60;;;11.25;;
76617;SDS011;65509;42.816;74.648;2023-06-14T12:48:56;59.20;;;20.20;;
76617;SDS011;65509;42.816;74.648;2023-06-14T12:51:21;67.93;;;20.17;;
76617;SDS011;65509;42.816;74.648;2023-06-14T12:53:47;56.72;;;14.25;;
76617;SDS011;65509;42.816;74.648;2023-06-14T12:56:14;54.70;;;14.70;;
76617;SDS011;65509;42.816;74.648;2023-06-14T12:58:42;41.78;;;10.93;;
76617;SDS011;65509;42.816;74.648;2023-06-14T13:01:08;49.25;;;12.13;;
76617;SDS011;65509;42.816;74.648;2023-06-14T13:03:33;59.33;;;12.23;;
76617;SDS011;65509;42.816;74.648;2023-06-14T13:05:59;51.30;;;12.40;;
76617;SDS011;65509;42.816;74.648;2023-06-14T13:08:26;68.95;;;26.27;;
76617;SDS011;65509;42.816;74.648;2023-06-14T13:10:51;52.72;;;10.38;;
76617;SDS011;65509;42.816;74.648;2023-06-14T13:13:17;34.05;;;7.03;;
76617;SDS011;65509;42.816;74.648;2023-06-14T13:15:42;46.67;;;7.32;;
76617;SDS011;65509;42.816;74.648;2023-06-14T13:18:11;31.75;;;5.95;;
76617;SDS011;65509;42.816;74.648;2023-06-14T13:20:38;35.00;;;7.50;;
76617;SDS011;65509;42.816;74.648;2023-06-14T13:23:04;40.63;;;9.65;;
76617;SDS011;65509;42.816;74.648;2023-06-14T13:25:31;35.85;;;10.88;;
76617;SDS011;65509;42.816;74.648;2023-06-14T13:27:56;63.63;;;15.57;;
76617;SDS011;65509;42.816;74.648;2023-06-14T13:30:22;72.25;;;22.88;;
76617;SDS011;65509;42.816;74.648;2023-06-14T13:32:53;56.00;;;20.30;;
76617;SDS011;65509;42.816;74.648;2023-06-14T13:35:18;103.15;;;44.10;;
76617;SDS011;65509;42.816;74.648;2023-06-14T13:37:44;76.32;;;31.52;;
76617;SDS011;65509;42.816;74.648;2023-06-14T13:40:13;59.10;;;21.80;;
76617;SDS011;65509;42.816;74.648;2023-06-14T13:42:38;46.75;;;14.18;;
76617;SDS011;65509;42.816;74.648;2023-06-14T13:45:04;58.42;;;14.85;;
76617;SDS011;65509;42.816;74.648;2023-06-14T13:47:30;47.80;;;12.32;;
76617;SDS011;65509;42.816;74.648;2023-06-14T13:49:56;61.40;;;14.73;;
76617;SDS011;65509;42.816;74.648;2023-06-14T13:52:22;75.68;;;19.83;;
76617;SDS011;65509;42.816;74.648;2023-06-14T13:54:47;79.70;;;20.00;;
76617;SDS011;65509;42.816;74.648;2023-06-14T13:57:13;85.70;;;29.92;;
76617;SDS011;65509;42.816;74.648;2023-06-14T13:59:39;92.15;;;33.35;;
76617;SDS011;65509;42.816;74.648;2023-06-14T14:02:07;81.82;;;27.00;;
76617;SDS011;65509;42.816;74.648;2023-06-14T14:04:34;105.72;;;35.08;;
76617;SDS011;65509;42.816;74.648;2023-06-14T14:07:00;213.90;;;101.13;;
76617;SDS011;65509;42.816;74.648;2023-06-14T14:09:26;127.78;;;45.58;;
76617;SDS011;65509;42.816;74.648;2023-06-14T14:11:51;193.80;;;92.30;;
76617;SDS011;65509;42.816;74.648;2023-06-14T14:14:17;123.32;;;36.72;;
76617;SDS011;65509;42.816;74.648;2023-06-14T14:16:43;140.35;;;55.92;;
76617;SDS011;65509;42.816;74.648;2023-06-14T14:19:08;102.30;;;26.80;;
76617;SDS011;65509;42.816;74.648;2023-06-14T14:21:33;84.38;;;22.60;;
76617;SDS011;65509;42.816;74.648;2023-06-14T14:24:00;100.22;;;24.85;;
76617;SDS011;65509;42.816;74.648;2023-06-14T14:26:25;85.22;;;20.95;;
76617;SDS011;65509;42.816;74.648;2023-06-14T14:28:54;75.38;;;24.27;;
76617;SDS011;65509;42.816;74.648;2023-06-14T14:31:19;68.47;;;21.55;;